createdAt,value
2022-08-04T00:00:18.152Z,1012.81
2022-08-04T00:01:18.174Z,1012.83
2022-08-04T00:02:18.153Z,1012.76
2022-08-04T00:03:18.113Z,1012.79
2022-08-04T00:04:18.117Z,1012.84
2022-08-04T00:05:18.036Z,1012.83
2022-08-04T00:06:18.032Z,1012.81
2022-08-04T00:07:18.001Z,1012.76
2022-08-04T00:08:18.020Z,1012.85
2022-08-04T00:09:18.021Z,1012.78
2022-08-04T00:10:17.996Z,1012.88
2022-08-04T00:11:17.929Z,1012.84
2022-08-04T00:12:18.024Z,1012.79
2022-08-04T00:13:18.043Z,1012.88
2022-08-04T00:14:17.910Z,1012.83
2022-08-04T00:15:17.883Z,1012.82
2022-08-04T00:16:17.869Z,1012.81
2022-08-04T00:17:17.902Z,1012.85
2022-08-04T00:18:17.864Z,1012.77
2022-08-04T00:19:17.884Z,1012.81
2022-08-04T00:20:17.822Z,1012.78
2022-08-04T00:21:17.835Z,1012.74
2022-08-04T00:22:17.785Z,1012.77
2022-08-04T00:23:17.764Z,1012.76
2022-08-04T00:24:17.756Z,1012.77
2022-08-04T00:25:17.827Z,1012.81
2022-08-04T00:26:17.723Z,1012.78
2022-08-04T00:27:17.739Z,1012.83
2022-08-04T00:28:17.705Z,1012.80
2022-08-04T00:29:17.700Z,1012.76
2022-08-04T00:30:17.684Z,1012.76
2022-08-04T00:31:17.677Z,1012.79
2022-08-04T00:32:33.909Z,1012.82
2022-08-04T00:33:18.651Z,1012.81
2022-08-04T00:34:17.640Z,1012.70
2022-08-04T00:35:17.668Z,1012.71
2022-08-04T00:36:17.596Z,1012.73
2022-08-04T00:37:17.650Z,1012.72
2022-08-04T00:38:17.571Z,1012.73
2022-08-04T00:39:19.916Z,1012.77
2022-08-04T00:40:17.570Z,1012.79
2022-08-04T00:41:19.313Z,1012.72
2022-08-04T00:42:17.620Z,1012.80
2022-08-04T00:43:17.508Z,1012.73
2022-08-04T00:44:23.732Z,1012.69
2022-08-04T00:45:18.546Z,1012.71
2022-08-04T00:46:18.179Z,1012.74
2022-08-04T00:47:17.474Z,1012.71
2022-08-04T00:48:17.468Z,1012.73
2022-08-04T00:49:17.557Z,1012.66
2022-08-04T00:50:17.463Z,1012.70
2022-08-04T00:51:17.425Z,1012.70
2022-08-04T00:52:30.678Z,1012.64
2022-08-04T00:53:18.389Z,1012.68
2022-08-04T00:54:17.365Z,1012.67
2022-08-04T00:55:17.354Z,1012.70
2022-08-04T00:56:17.338Z,1012.65
2022-08-04T00:57:29.962Z,1012.60
2022-08-04T00:58:18.372Z,1012.63
2022-08-04T00:59:17.313Z,1012.61
2022-08-04T01:00:17.299Z,1012.59
2022-08-04T01:01:17.319Z,1012.59
2022-08-04T01:02:17.259Z,1012.55
2022-08-04T01:03:17.274Z,1012.51
2022-08-04T01:04:19.736Z,1012.51
2022-08-04T01:05:18.235Z,1012.60
2022-08-04T01:06:17.291Z,1012.51
2022-08-04T01:07:17.194Z,1012.54
2022-08-04T01:08:17.182Z,1012.56
2022-08-04T01:09:21.148Z,1012.55
2022-08-04T01:10:17.773Z,1012.51
2022-08-04T01:11:17.133Z,1012.54
2022-08-04T01:12:17.136Z,1012.52
2022-08-04T01:13:17.117Z,1012.52
2022-08-04T01:14:17.137Z,1012.52
2022-08-04T01:15:17.091Z,1012.47
2022-08-04T01:16:17.091Z,1012.48
2022-08-04T01:17:17.059Z,1012.44
2022-08-04T01:18:17.055Z,1012.45
2022-08-04T01:19:17.035Z,1012.41
2022-08-04T01:20:17.057Z,1012.47
2022-08-04T01:21:17.064Z,1012.45
2022-08-04T01:22:17.744Z,1012.38
2022-08-04T01:23:16.979Z,1012.42
2022-08-04T01:24:16.969Z,1012.37
2022-08-04T01:25:16.970Z,1012.42
2022-08-04T01:26:43.816Z,1012.38
2022-08-04T01:27:17.977Z,1012.40
2022-08-04T01:28:16.930Z,1012.36
2022-08-04T01:29:16.915Z,1012.35
2022-08-04T01:30:16.930Z,1012.40
2022-08-04T01:31:16.895Z,1012.37
2022-08-04T01:32:16.879Z,1012.35
2022-08-04T01:33:16.853Z,1012.39
2022-08-04T01:34:16.840Z,1012.35
2022-08-04T01:35:22.282Z,1012.33
2022-08-04T01:36:18.035Z,1012.31
2022-08-04T01:37:16.813Z,1012.34
2022-08-04T01:38:20.956Z,1012.31
2022-08-04T01:39:16.869Z,1012.31
2022-08-04T01:40:16.779Z,1012.35
2022-08-04T01:41:16.774Z,1012.32
2022-08-04T01:42:32.270Z,1012.33
2022-08-04T01:43:17.755Z,1012.34
2022-08-04T01:44:16.738Z,1012.28
2022-08-04T01:45:16.867Z,1012.25
2022-08-04T01:46:16.680Z,1012.25
2022-08-04T01:47:16.783Z,1012.21
2022-08-04T01:48:16.660Z,1012.27
2022-08-04T01:49:16.753Z,1012.20
2022-08-04T01:50:16.635Z,1012.22
2022-08-04T01:51:16.629Z,1012.19
2022-08-04T01:52:16.621Z,1012.16
2022-08-04T01:53:16.593Z,1012.18
2022-08-04T01:54:16.596Z,1012.20
2022-08-04T01:55:16.564Z,1012.22
2022-08-04T01:56:16.571Z,1012.18
2022-08-04T01:57:36.916Z,1012.17
2022-08-04T01:58:17.528Z,1012.14
2022-08-04T01:59:16.540Z,1012.14
2022-08-04T02:00:16.499Z,1012.18
2022-08-04T02:01:16.582Z,1012.14
2022-08-04T02:02:16.580Z,1012.17
2022-08-04T02:03:16.447Z,1012.17
2022-08-04T02:04:18.813Z,1012.17
2022-08-04T02:05:17.442Z,1012.17
2022-08-04T02:06:16.447Z,1012.15
2022-08-04T02:07:17.034Z,1012.10
2022-08-04T02:08:16.394Z,1012.11
2022-08-04T02:09:16.381Z,1012.15
2022-08-04T02:10:16.375Z,1012.11
2022-08-04T02:11:16.385Z,1012.07
2022-08-04T02:12:16.554Z,1012.07
2022-08-04T02:13:16.340Z,1012.06
2022-08-04T02:14:16.308Z,1012.08
2022-08-04T02:15:16.303Z,1012.03
2022-08-04T02:16:16.291Z,1012.08
2022-08-04T02:17:16.303Z,1012.08
2022-08-04T02:18:16.281Z,1012.03
2022-08-04T02:19:16.251Z,1012.04
2022-08-04T02:20:16.250Z,1012.02
2022-08-04T02:21:16.231Z,1012.06
2022-08-04T02:22:16.249Z,1012.07
2022-08-04T02:23:16.184Z,1012.06
2022-08-04T02:24:16.197Z,1012.06
2022-08-04T02:25:16.171Z,1012.08
2022-08-04T02:26:19.371Z,1012.05
2022-08-04T02:27:17.192Z,1012.06
2022-08-04T02:28:16.150Z,1012.06
2022-08-04T02:29:16.335Z,1011.99
2022-08-04T02:30:17.653Z,1012.01
2022-08-04T02:31:16.105Z,1011.96
2022-08-04T02:32:16.067Z,1012.02
2022-08-04T02:33:16.060Z,1011.97
2022-08-04T02:34:16.074Z,1011.99
2022-08-04T02:35:16.048Z,1012.04
2022-08-04T02:36:16.018Z,1012.03
2022-08-04T02:37:16.008Z,1012.02
2022-08-04T02:38:16.030Z,1012.01
2022-08-04T02:39:16.037Z,1012.00
2022-08-04T02:40:15.968Z,1011.96
2022-08-04T02:41:15.944Z,1011.95
2022-08-04T02:42:15.943Z,1011.97
2022-08-04T02:43:15.966Z,1011.96
2022-08-04T02:44:16.948Z,1011.95
2022-08-04T02:45:15.907Z,1011.97
2022-08-04T02:46:17.961Z,1011.97
2022-08-04T02:47:15.887Z,1011.94
2022-08-04T02:48:30.659Z,1011.95
2022-08-04T02:49:17.525Z,1011.89
2022-08-04T02:50:29.015Z,1011.89
2022-08-04T02:51:16.821Z,1011.90
2022-08-04T02:52:15.865Z,1011.88
2022-08-04T02:53:15.790Z,1011.89
2022-08-04T02:54:15.793Z,1011.84
2022-08-04T02:55:16.773Z,1011.87
2022-08-04T02:56:15.787Z,1011.86
2022-08-04T02:57:15.750Z,1011.84
2022-08-04T02:58:15.855Z,1011.85
2022-08-04T02:59:15.739Z,1011.84
2022-08-04T03:00:15.721Z,1011.88
2022-08-04T03:01:15.745Z,1011.88
2022-08-04T03:02:15.673Z,1011.90
2022-08-04T03:03:15.673Z,1011.81
2022-08-04T03:04:24.178Z,1011.86
2022-08-04T03:05:16.630Z,1011.80
2022-08-04T03:06:15.676Z,1011.86
2022-08-04T03:07:15.757Z,1011.86
2022-08-04T03:08:15.603Z,1011.86
2022-08-04T03:09:15.624Z,1011.84
2022-08-04T03:10:15.592Z,1011.86
2022-08-04T03:11:15.601Z,1011.78
2022-08-04T03:12:15.558Z,1011.86
2022-08-04T03:13:15.576Z,1011.80
2022-08-04T03:14:15.595Z,1011.77
2022-08-04T03:15:15.520Z,1011.76
2022-08-04T03:16:15.525Z,1011.81
2022-08-04T03:17:15.482Z,1011.77
2022-08-04T03:18:15.568Z,1011.76
2022-08-04T03:19:15.477Z,1011.76
2022-08-04T03:20:15.747Z,1011.81
2022-08-04T03:21:15.428Z,1011.77
2022-08-04T03:22:15.412Z,1011.76
2022-08-04T03:23:15.397Z,1011.76
2022-08-04T03:24:19.721Z,1011.83
2022-08-04T03:25:15.389Z,1011.78
2022-08-04T03:26:15.399Z,1011.80
2022-08-04T03:27:15.370Z,1011.76
2022-08-04T03:28:15.350Z,1011.77
2022-08-04T03:29:15.311Z,1011.77
2022-08-04T03:30:16.329Z,1011.79
2022-08-04T03:31:15.287Z,1011.80
2022-08-04T03:32:15.286Z,1011.78
2022-08-04T03:33:15.291Z,1011.79
2022-08-04T03:34:15.262Z,1011.79
2022-08-04T03:35:22.446Z,1011.80
2022-08-04T03:36:16.223Z,1011.70
2022-08-04T03:37:15.220Z,1011.81
2022-08-04T03:38:15.239Z,1011.75
2022-08-04T03:39:15.325Z,1011.74
2022-08-04T03:40:15.198Z,1011.74
2022-08-04T03:41:15.174Z,1011.78
2022-08-04T03:42:16.111Z,1011.76
2022-08-04T03:43:58.699Z,1011.73
2022-08-04T03:44:16.152Z,1011.74
2022-08-04T03:45:23.605Z,1011.74
2022-08-04T03:46:16.103Z,1011.70
2022-08-04T03:47:15.177Z,1011.70
2022-08-04T03:48:15.064Z,1011.67
2022-08-04T03:49:15.111Z,1011.64
2022-08-04T03:50:15.063Z,1011.69
2022-08-04T03:51:35.501Z,1011.72
2022-08-04T03:52:16.057Z,1011.73
2022-08-04T03:53:15.005Z,1011.72
2022-08-04T03:54:15.025Z,1011.73
2022-08-04T03:55:15.043Z,1011.70
2022-08-04T03:56:15.003Z,1011.74
2022-08-04T03:57:15.004Z,1011.76
2022-08-04T03:58:14.950Z,1011.68
2022-08-04T03:59:14.922Z,1011.76
2022-08-04T04:00:14.918Z,1011.76
2022-08-04T04:01:14.910Z,1011.73
2022-08-04T04:02:14.984Z,1011.69
2022-08-04T04:03:28.419Z,1011.65
2022-08-04T04:04:15.885Z,1011.70
2022-08-04T04:05:14.852Z,1011.70
2022-08-04T04:06:15.189Z,1011.68
2022-08-04T04:07:14.876Z,1011.70
2022-08-04T04:08:16.466Z,1011.66
2022-08-04T04:09:16.331Z,1011.70
2022-08-04T04:10:15.788Z,1011.69
2022-08-04T04:11:14.814Z,1011.70
2022-08-04T04:12:14.794Z,1011.69
2022-08-04T04:13:14.761Z,1011.66
2022-08-04T04:14:14.734Z,1011.70
2022-08-04T04:15:14.729Z,1011.68
2022-08-04T04:16:14.728Z,1011.68
2022-08-04T04:17:14.742Z,1011.67
2022-08-04T04:18:14.804Z,1011.69
2022-08-04T04:19:19.050Z,1011.68
2022-08-04T04:20:14.809Z,1011.71
2022-08-04T04:21:14.651Z,1011.72
2022-08-04T04:22:14.646Z,1011.71
2022-08-04T04:23:14.623Z,1011.75
2022-08-04T04:24:14.668Z,1011.82
2022-08-04T04:25:14.652Z,1011.71
2022-08-04T04:26:14.626Z,1011.78
2022-08-04T04:27:14.576Z,1011.76
2022-08-04T04:28:45.197Z,1011.76
2022-08-04T04:29:15.813Z,1011.70
2022-08-04T04:30:14.534Z,1011.76
2022-08-04T04:31:14.511Z,1011.68
2022-08-04T04:32:14.538Z,1011.74
2022-08-04T04:33:14.551Z,1011.77
2022-08-04T04:34:14.558Z,1011.60
2022-08-04T04:35:14.453Z,1011.66
2022-08-04T04:36:14.464Z,1011.70
2022-08-04T04:37:18.481Z,1011.66
2022-08-04T04:38:14.463Z,1011.65
2022-08-04T04:39:14.424Z,1011.65
2022-08-04T04:40:14.394Z,1011.67
2022-08-04T04:41:14.411Z,1011.68
2022-08-04T04:42:14.453Z,1011.66
2022-08-04T04:43:14.355Z,1011.61
2022-08-04T04:44:14.349Z,1011.68
2022-08-04T04:45:14.489Z,1011.63
2022-08-04T04:46:15.423Z,1011.57
2022-08-04T04:47:14.336Z,1011.61
2022-08-04T04:48:14.285Z,1011.61
2022-08-04T04:49:14.275Z,1011.54
2022-08-04T04:50:14.273Z,1011.49
2022-08-04T04:51:14.256Z,1011.43
2022-08-04T04:52:14.242Z,1011.47
2022-08-04T04:53:14.224Z,1011.43
2022-08-04T04:54:14.215Z,1011.50
2022-08-04T04:55:14.262Z,1011.55
2022-08-04T04:56:14.211Z,1011.47
2022-08-04T04:57:14.195Z,1011.48
2022-08-04T04:58:14.181Z,1011.48
2022-08-04T04:59:14.159Z,1011.54
2022-08-04T05:00:14.130Z,1011.48
2022-08-04T05:01:14.110Z,1011.48
2022-08-04T05:02:14.094Z,1011.49
2022-08-04T05:03:14.157Z,1011.47
2022-08-04T05:04:14.106Z,1011.45
2022-08-04T05:05:14.078Z,1011.45
2022-08-04T05:06:14.068Z,1011.40
2022-08-04T05:07:14.370Z,1011.39
2022-08-04T05:08:43.016Z,1011.39
2022-08-04T05:09:15.009Z,1011.46
2022-08-04T05:10:13.995Z,1011.41
2022-08-04T05:11:13.982Z,1011.42
2022-08-04T05:14:32.521Z,1011.46
2022-08-04T05:14:34.619Z,1011.46
2022-08-04T05:14:34.834Z,1011.43
2022-08-04T05:15:15.631Z,1011.49
2022-08-04T05:16:13.928Z,1011.46
2022-08-04T05:17:13.903Z,1011.46
2022-08-04T05:18:13.902Z,1011.48
2022-08-04T05:19:14.207Z,1011.39
2022-08-04T05:20:13.853Z,1011.47
2022-08-04T05:21:13.864Z,1011.44
2022-08-04T05:22:14.761Z,1011.43
2022-08-04T05:23:13.862Z,1011.43
2022-08-04T05:24:13.815Z,1011.42
2022-08-04T05:25:13.798Z,1011.40
2022-08-04T05:26:13.782Z,1011.45
2022-08-04T05:27:13.795Z,1011.47
2022-08-04T05:28:13.782Z,1011.42
2022-08-04T05:29:13.757Z,1011.49
2022-08-04T05:30:13.761Z,1011.38
2022-08-04T05:31:13.731Z,1011.37
2022-08-04T05:32:13.719Z,1011.48
2022-08-04T05:33:13.713Z,1011.36
2022-08-04T05:34:13.708Z,1011.44
2022-08-04T05:35:13.675Z,1011.40
2022-08-04T05:36:21.690Z,1011.41
2022-08-04T05:37:14.675Z,1011.36
2022-08-04T05:38:13.677Z,1011.37
2022-08-04T05:39:13.752Z,1011.33
2022-08-04T05:40:13.629Z,1011.38
2022-08-04T05:41:13.625Z,1011.42
2022-08-04T05:42:13.580Z,1011.36
2022-08-04T05:43:13.607Z,1011.34
2022-08-04T05:44:13.822Z,1011.37
2022-08-04T05:45:13.539Z,1011.28
2022-08-04T05:46:13.546Z,1011.36
2022-08-04T05:47:13.569Z,1011.30
2022-08-04T05:48:13.520Z,1011.28
2022-08-04T05:49:19.476Z,1011.27
2022-08-04T05:50:14.699Z,1011.23
2022-08-04T05:51:13.472Z,1011.23
2022-08-04T05:52:13.454Z,1011.29
2022-08-04T05:53:13.773Z,1011.24
2022-08-04T05:54:13.468Z,1011.21
2022-08-04T05:55:13.416Z,1011.19
2022-08-04T05:56:14.390Z,1011.21
2022-08-04T05:57:13.484Z,1011.21
2022-08-04T05:58:13.655Z,1011.18
2022-08-04T05:59:13.369Z,1011.14
2022-08-04T06:00:39.060Z,1011.15
2022-08-04T06:01:14.348Z,1011.15
2022-08-04T06:02:13.363Z,1011.18
2022-08-04T06:03:13.320Z,1011.15
2022-08-04T06:04:13.367Z,1011.19
2022-08-04T06:05:13.307Z,1011.14
2022-08-04T06:06:13.291Z,1011.14
2022-08-04T06:07:13.502Z,1011.18
2022-08-04T06:08:14.019Z,1011.19
2022-08-04T06:09:13.233Z,1011.18
2022-08-04T06:10:13.236Z,1011.15
2022-08-04T06:11:13.261Z,1011.13
2022-08-04T06:12:13.510Z,1011.13
2022-08-04T06:13:49.793Z,1011.09
2022-08-04T06:14:14.204Z,1011.09
2022-08-04T06:15:13.165Z,1011.13
2022-08-04T06:16:18.119Z,1011.16
2022-08-04T06:18:33.429Z,1011.18
2022-08-04T06:18:35.251Z,1011.09
2022-08-04T06:20:00.894Z,1011.14
2022-08-04T06:20:19.083Z,1011.09
2022-08-04T06:21:16.275Z,1011.15
2022-08-04T06:22:13.119Z,1011.15
2022-08-04T06:23:13.052Z,1011.11
2022-08-04T06:24:13.046Z,1011.11
2022-08-04T06:25:13.083Z,1011.15
2022-08-04T06:26:13.003Z,1011.15
2022-08-04T06:27:13.012Z,1011.07
2022-08-04T06:28:12.985Z,1011.08
2022-08-04T06:29:12.984Z,1011.10
2022-08-04T06:30:12.965Z,1011.11
2022-08-04T06:32:26.837Z,1011.02
2022-08-04T06:32:29.042Z,1010.96
2022-08-04T06:33:13.939Z,1011.04
2022-08-04T06:34:12.907Z,1011.01
2022-08-04T06:35:16.933Z,1011.04
2022-08-04T06:36:12.939Z,1011.05
2022-08-04T06:37:24.154Z,1011.02
2022-08-04T06:38:13.886Z,1011.04
2022-08-04T06:39:12.905Z,1011.05
2022-08-04T06:40:29.845Z,1011.03
2022-08-04T06:41:13.829Z,1011.04
2022-08-04T06:42:21.587Z,1011.04
2022-08-04T06:43:13.796Z,1011.04
2022-08-04T06:44:12.777Z,1010.99
2022-08-04T06:45:12.844Z,1010.98
2022-08-04T06:46:12.800Z,1010.97
2022-08-04T06:47:13.856Z,1011.03
2022-08-04T06:48:12.735Z,1011.03
2022-08-04T06:49:12.727Z,1010.95
2022-08-04T06:51:24.435Z,1011.02
2022-08-04T06:51:26.830Z,1010.98
2022-08-04T06:52:13.701Z,1011.02
2022-08-04T06:53:12.719Z,1010.96
2022-08-04T06:54:12.678Z,1010.93
2022-08-04T06:55:12.649Z,1010.99
2022-08-04T06:56:12.622Z,1010.95
2022-08-04T06:57:12.631Z,1011.03
2022-08-04T06:58:12.631Z,1011.03
2022-08-04T06:59:12.611Z,1010.94
2022-08-04T07:00:12.598Z,1010.94
2022-08-04T07:01:12.564Z,1010.90
2022-08-04T07:02:13.273Z,1010.93
2022-08-04T07:03:12.552Z,1010.91
2022-08-04T07:04:12.528Z,1010.89
2022-08-04T07:05:12.544Z,1010.87
2022-08-04T07:06:14.561Z,1010.87
2022-08-04T07:07:12.500Z,1010.88
2022-08-04T07:08:12.502Z,1010.95
2022-08-04T07:09:12.461Z,1010.90
2022-08-04T07:10:12.438Z,1010.92
2022-08-04T07:11:13.437Z,1010.95
2022-08-04T07:12:12.442Z,1010.88
2022-08-04T07:13:12.441Z,1010.87
2022-08-04T07:14:12.401Z,1010.86
2022-08-04T07:15:14.374Z,1010.87
2022-08-04T07:16:12.367Z,1010.86
2022-08-04T07:17:12.406Z,1010.89
2022-08-04T07:18:12.571Z,1010.85
2022-08-04T07:19:15.896Z,1010.82
2022-08-04T07:20:13.312Z,1010.81
2022-08-04T07:21:12.302Z,1010.87
2022-08-04T07:22:19.431Z,1010.86
2022-08-04T07:23:13.316Z,1010.81
2022-08-04T07:24:12.286Z,1010.85
2022-08-04T07:25:12.951Z,1010.77
2022-08-04T07:26:13.501Z,1010.79
2022-08-04T07:27:12.219Z,1010.77
2022-08-04T07:28:12.222Z,1010.80
2022-08-04T07:29:12.221Z,1010.81
2022-08-04T07:30:12.177Z,1010.81
2022-08-04T07:31:16.564Z,1010.77
2022-08-04T07:32:13.202Z,1010.81
2022-08-04T07:33:12.144Z,1010.74
2022-08-04T07:34:21.360Z,1010.73
2022-08-04T07:36:05.487Z,1010.76
2022-08-04T07:36:13.123Z,1010.75
2022-08-04T07:37:12.104Z,1010.75
2022-08-04T07:38:12.085Z,1010.74
2022-08-04T07:39:12.159Z,1010.77
2022-08-04T07:40:13.101Z,1010.79
2022-08-04T07:42:13.032Z,1010.73
2022-08-04T07:43:12.042Z,1010.74
2022-08-04T07:44:12.037Z,1010.75
2022-08-04T07:45:11.996Z,1010.78
2022-08-04T07:46:12.036Z,1010.75
2022-08-04T07:47:11.971Z,1010.76
2022-08-04T07:48:11.986Z,1010.71
2022-08-04T07:49:11.956Z,1010.70
2022-08-04T07:50:12.932Z,1010.72
2022-08-04T07:51:11.915Z,1010.78
2022-08-04T07:52:11.902Z,1010.72
2022-08-04T07:53:55.597Z,1010.79
2022-08-04T07:54:12.935Z,1010.76
2022-08-04T07:55:11.882Z,1010.72
2022-08-04T07:56:11.845Z,1010.67
2022-08-04T07:57:19.526Z,1010.64
2022-08-04T07:58:12.819Z,1010.67
2022-08-04T07:59:11.852Z,1010.74
2022-08-04T08:00:11.799Z,1010.68
2022-08-04T08:01:11.848Z,1010.63
2022-08-04T08:02:11.790Z,1010.67
2022-08-04T08:03:11.839Z,1010.67
2022-08-04T08:04:12.474Z,1010.68
2022-08-04T08:05:11.795Z,1010.73
2022-08-04T08:06:31.361Z,1010.72
2022-08-04T08:07:12.775Z,1010.69
2022-08-04T08:08:11.773Z,1010.74
2022-08-04T08:09:12.686Z,1010.69
2022-08-04T08:10:11.662Z,1010.72
2022-08-04T08:11:11.741Z,1010.66
2022-08-04T08:12:38.285Z,1010.70
2022-08-04T08:13:12.627Z,1010.68
2022-08-04T08:14:11.795Z,1010.63
2022-08-04T08:15:11.720Z,1010.64
2022-08-04T08:16:11.627Z,1010.59
2022-08-04T08:17:11.611Z,1010.58
2022-08-04T08:18:11.717Z,1010.59
2022-08-04T08:19:11.623Z,1010.56
2022-08-04T08:20:11.554Z,1010.50
2022-08-04T08:21:13.216Z,1010.62
2022-08-04T08:22:11.521Z,1010.61
2022-08-04T08:23:11.519Z,1010.50
2022-08-04T08:24:12.780Z,1010.57
2022-08-04T08:25:11.589Z,1010.53
2022-08-04T08:26:12.245Z,1010.59
2022-08-04T08:27:11.563Z,1010.53
2022-08-04T08:28:11.439Z,1010.55
2022-08-04T08:29:11.452Z,1010.57
2022-08-04T08:30:11.431Z,1010.60
2022-08-04T08:31:11.409Z,1010.58
2022-08-04T08:32:11.426Z,1010.52
2022-08-04T08:33:11.426Z,1010.43
2022-08-04T08:34:11.396Z,1010.46
2022-08-04T08:35:11.358Z,1010.48
2022-08-04T08:36:11.375Z,1010.48
2022-08-04T08:37:11.340Z,1010.39
2022-08-04T08:38:11.318Z,1010.46
2022-08-04T08:39:11.400Z,1010.43
2022-08-04T08:40:11.304Z,1010.47
2022-08-04T08:41:11.280Z,1010.37
2022-08-04T08:42:11.266Z,1010.40
2022-08-04T08:44:00.293Z,1010.43
2022-08-04T08:44:30.204Z,1010.38
2022-08-04T08:45:12.241Z,1010.33
2022-08-04T08:46:12.205Z,1010.39
2022-08-04T08:47:11.196Z,1010.30
2022-08-04T08:48:11.200Z,1010.29
2022-08-04T08:49:11.274Z,1010.33
2022-08-04T08:50:12.161Z,1010.30
2022-08-04T08:51:11.155Z,1010.31
2022-08-04T08:52:11.137Z,1010.27
2022-08-04T08:53:11.129Z,1010.28
2022-08-04T08:54:11.155Z,1010.25
2022-08-04T08:55:11.109Z,1010.29
2022-08-04T08:56:11.119Z,1010.26
2022-08-04T08:57:11.089Z,1010.20
2022-08-04T08:58:11.072Z,1010.23
2022-08-04T08:59:15.113Z,1010.20
2022-08-04T09:00:11.047Z,1010.19
2022-08-04T09:01:11.142Z,1010.19
2022-08-04T09:02:11.011Z,1010.17
2022-08-04T09:03:10.997Z,1010.17
2022-08-04T09:04:11.025Z,1010.16
2022-08-04T09:05:11.962Z,1010.13
2022-08-04T09:06:10.980Z,1010.17
2022-08-04T09:07:10.960Z,1010.16
2022-08-04T09:08:10.987Z,1010.15
2022-08-04T09:09:10.922Z,1010.10
2022-08-04T09:10:10.909Z,1010.07
2022-08-04T09:11:11.179Z,1010.12
2022-08-04T09:12:10.909Z,1010.12
2022-08-04T09:13:10.893Z,1010.13
2022-08-04T09:14:10.862Z,1010.11
2022-08-04T09:15:10.868Z,1010.05
2022-08-04T09:16:10.840Z,1010.11
2022-08-04T09:17:10.824Z,1010.12
2022-08-04T09:18:10.827Z,1010.01
2022-08-04T09:19:17.681Z,1010.07
2022-08-04T09:20:11.780Z,1010.00
2022-08-04T09:21:10.768Z,1010.05
2022-08-04T09:22:12.661Z,1010.02
2022-08-04T09:23:10.767Z,1010.01
2022-08-04T09:24:35.118Z,1009.97
2022-08-04T09:25:11.721Z,1009.91
2022-08-04T09:26:10.747Z,1009.94
2022-08-04T09:27:10.703Z,1009.93
2022-08-04T09:28:10.704Z,1009.88
2022-08-04T09:29:10.704Z,1009.88
2022-08-04T09:30:10.665Z,1009.93
2022-08-04T09:31:10.657Z,1009.94
2022-08-04T09:32:10.663Z,1009.98
2022-08-04T09:33:10.628Z,1009.96
2022-08-04T09:34:10.624Z,1009.95
2022-08-04T09:35:15.393Z,1009.98
2022-08-04T09:36:11.647Z,1009.92
2022-08-04T09:37:10.588Z,1009.89
2022-08-04T09:38:10.566Z,1009.93
2022-08-04T09:39:10.624Z,1009.94
2022-08-04T09:40:14.510Z,1009.93
2022-08-04T09:41:20.963Z,1009.96
2022-08-04T09:42:11.521Z,1009.90
2022-08-04T09:43:10.510Z,1009.96
2022-08-04T09:44:48.912Z,1009.90
2022-08-04T09:45:15.610Z,1009.90
2022-08-04T09:46:11.468Z,1009.89
2022-08-04T09:47:10.483Z,1009.90
2022-08-04T09:48:10.466Z,1009.84
2022-08-04T09:49:10.425Z,1009.87
2022-08-04T09:50:10.432Z,1009.84
2022-08-04T09:51:10.460Z,1009.79
2022-08-04T09:52:10.400Z,1009.82
2022-08-04T09:53:11.086Z,1009.81
2022-08-04T09:54:10.401Z,1009.81
2022-08-04T09:55:11.369Z,1009.77
2022-08-04T09:56:10.372Z,1009.78
2022-08-04T09:57:10.339Z,1009.73
2022-08-04T09:58:10.359Z,1009.71
2022-08-04T09:59:10.300Z,1009.73
2022-08-04T10:00:10.315Z,1009.73
2022-08-04T10:01:10.266Z,1009.73
2022-08-04T10:02:10.260Z,1009.70
2022-08-04T10:03:10.304Z,1009.73
2022-08-04T10:04:10.252Z,1009.70
2022-08-04T10:05:10.289Z,1009.77
2022-08-04T10:06:10.218Z,1009.67
2022-08-04T10:07:10.210Z,1009.73
2022-08-04T10:08:16.198Z,1009.69
2022-08-04T10:09:15.078Z,1009.72
2022-08-04T10:10:10.177Z,1009.78
2022-08-04T10:11:12.587Z,1009.76
2022-08-04T10:12:10.191Z,1009.70
2022-08-04T10:13:10.135Z,1009.61
2022-08-04T10:14:10.222Z,1009.66
2022-08-04T10:15:10.124Z,1009.69
2022-08-04T10:16:10.098Z,1009.57
2022-08-04T10:17:10.770Z,1009.64
2022-08-04T10:18:10.071Z,1009.60
2022-08-04T10:19:10.077Z,1009.71
2022-08-04T10:20:10.040Z,1009.63
2022-08-04T10:21:15.234Z,1009.58
2022-08-04T10:22:29.253Z,1009.58
2022-08-04T10:23:12.270Z,1009.58
2022-08-04T10:24:10.000Z,1009.54
2022-08-04T10:25:37.464Z,1009.57
2022-08-04T10:26:11.059Z,1009.53
2022-08-04T10:27:09.950Z,1009.53
2022-08-04T10:28:10.005Z,1009.54
2022-08-04T10:29:10.139Z,1009.51
2022-08-04T10:30:09.922Z,1009.54
2022-08-04T10:31:09.926Z,1009.51
2022-08-04T10:32:09.913Z,1009.48
2022-08-04T10:33:09.896Z,1009.43
2022-08-04T10:34:09.905Z,1009.46
2022-08-04T10:35:09.852Z,1009.42
2022-08-04T10:36:09.868Z,1009.47
2022-08-04T10:37:09.837Z,1009.46
2022-08-04T10:38:09.817Z,1009.40
2022-08-04T10:39:12.269Z,1009.37
2022-08-04T10:40:10.856Z,1009.37
2022-08-04T10:41:09.789Z,1009.43
2022-08-04T10:42:09.765Z,1009.37
2022-08-04T10:43:20.859Z,1009.30
2022-08-04T10:44:10.761Z,1009.29
2022-08-04T10:45:09.741Z,1009.28
2022-08-04T10:46:09.737Z,1009.28
2022-08-04T10:47:09.728Z,1009.28
2022-08-04T10:48:10.607Z,1009.22
2022-08-04T10:49:09.730Z,1009.21
2022-08-04T10:50:09.676Z,1009.15
2022-08-04T10:51:09.673Z,1009.18
2022-08-04T10:52:09.704Z,1009.10
2022-08-04T10:53:09.868Z,1009.13
2022-08-04T10:54:09.644Z,1009.09
2022-08-04T10:55:09.637Z,1009.11
2022-08-04T10:56:09.613Z,1009.16
2022-08-04T10:57:09.693Z,1009.09
2022-08-04T10:58:09.584Z,1009.03
2022-08-04T10:59:09.601Z,1009.14
2022-08-04T11:00:09.585Z,1009.04
2022-08-04T11:01:09.551Z,1009.03
2022-08-04T11:02:14.930Z,1009.01
2022-08-04T11:03:10.736Z,1009.01
2022-08-04T11:04:09.530Z,1009.04
2022-08-04T11:05:09.512Z,1008.99
2022-08-04T11:06:09.490Z,1009.04
2022-08-04T11:07:09.478Z,1008.98
2022-08-04T11:08:12.790Z,1008.96
2022-08-04T11:09:13.978Z,1008.89
2022-08-04T11:10:10.445Z,1008.90
2022-08-04T11:11:13.233Z,1008.92
2022-08-04T11:12:09.420Z,1008.87
2022-08-04T11:13:30.100Z,1008.97
2022-08-04T11:14:10.400Z,1008.90
2022-08-04T11:15:09.383Z,1008.87
2022-08-04T11:16:09.369Z,1008.86
2022-08-04T11:17:09.362Z,1008.85
2022-08-04T11:18:16.296Z,1008.91
2022-08-04T11:19:09.342Z,1008.87
2022-08-04T11:20:33.483Z,1008.83
2022-08-04T11:21:10.392Z,1008.83
2022-08-04T11:22:09.295Z,1008.85
2022-08-04T11:23:09.290Z,1008.76
2022-08-04T11:24:09.262Z,1008.80
2022-08-04T11:25:09.309Z,1008.75
2022-08-04T11:26:09.240Z,1008.74
2022-08-04T11:27:09.244Z,1008.80
2022-08-04T11:28:09.222Z,1008.77
2022-08-04T11:29:09.201Z,1008.79
2022-08-04T11:30:09.214Z,1008.70
2022-08-04T11:31:09.249Z,1008.82
2022-08-04T11:32:09.198Z,1008.81
2022-08-04T11:33:09.167Z,1008.77
2022-08-04T11:34:09.379Z,1008.81
2022-08-04T11:35:09.140Z,1008.77
2022-08-04T11:36:09.136Z,1008.81
2022-08-04T11:37:14.228Z,1008.76
2022-08-04T11:38:10.142Z,1008.69
2022-08-04T11:39:09.167Z,1008.68
2022-08-04T11:40:09.096Z,1008.74
2022-08-04T11:41:09.085Z,1008.66
2022-08-04T11:42:09.134Z,1008.66
2022-08-04T11:43:09.036Z,1008.77
2022-08-04T11:44:12.457Z,1008.69
2022-08-04T11:45:09.062Z,1008.68
2022-08-04T11:46:09.117Z,1008.74
2022-08-04T11:47:09.010Z,1008.71
2022-08-04T11:48:09.012Z,1008.66
2022-08-04T11:49:09.033Z,1008.77
2022-08-04T11:50:09.041Z,1008.79
2022-08-04T11:51:09.489Z,1008.73
2022-08-04T11:52:08.950Z,1008.67
2022-08-04T11:53:08.973Z,1008.76
2022-08-04T11:54:08.902Z,1008.74
2022-08-04T11:55:08.906Z,1008.70
2022-08-04T11:56:11.011Z,1008.84
2022-08-04T11:57:08.904Z,1008.83
2022-08-04T11:58:08.862Z,1008.78
2022-08-04T11:59:08.924Z,1008.76
2022-08-04T12:00:08.904Z,1008.79
2022-08-04T12:01:08.825Z,1008.72
2022-08-04T12:02:08.865Z,1008.79
2022-08-04T12:03:08.848Z,1008.70
2022-08-04T12:04:08.798Z,1008.76
2022-08-04T12:05:08.816Z,1008.80
2022-08-04T12:06:08.781Z,1008.65